Terminal Aerodrome Forecast
Issued by NWS

Current Version | Previous Version | Text Only | Print | Product List | Glossary Off
Versions: 1 2 3 4 5 6 7 8 9 10 11 12 13 14 15 16 17 18 19 20

000
FTUS41 KILN 271700
TAFLUK
TAF
KLUK 271732Z 2718/2818 20014G20KT P6SM FEW035 BKN250
     FM272300 20007KT P6SM BKN250
     FM280900 21012KT P6SM SCT040 BKN200
     FM281500 22012G22KT P6SM -SHRA OVC025=

USA.gov is the U.S. government's official web portal to all federal, state and local government web resources and services.